sensor_id;sensor_type;location;lat;lon;timestamp;temperature;humidity
14020;DHT22;7085;51.428;6.796;2022-09-30T04:21:07;6.40;99.90
14020;DHT22;7085;51.428;6.796;2022-09-30T04:23:34;6.40;99.90
14020;DHT22;7085;51.428;6.796;2022-09-30T04:26:02;6.40;99.90
14020;DHT22;7085;51.428;6.796;2022-09-30T04:28:28;6.40;99.90
14020;DHT22;7085;51.428;6.796;2022-09-30T04:30:57;6.40;99.90
14020;DHT22;7085;51.428;6.796;2022-09-30T04:33:24;6.50;99.90
14020;DHT22;7085;51.428;6.796;2022-09-30T04:35:52;6.50;99.90
14020;DHT22;7085;51.428;6.796;2022-09-30T04:38:20;6.50;99.90
14020;DHT22;7085;51.428;6.796;2022-09-30T04:40:48;6.50;99.90
14020;DHT22;7085;51.428;6.796;2022-09-30T04:43:15;6.50;99.90
14020;DHT22;7085;51.428;6.796;2022-09-30T04:45:43;6.50;99.90
14020;DHT22;7085;51.428;6.796;2022-09-30T04:48:10;6.50;99.90
14020;DHT22;7085;51.428;6.796;2022-09-30T04:50:37;6.60;99.90
14020;DHT22;7085;51.428;6.796;2022-09-30T04:53:03;6.70;99.90
14020;DHT22;7085;51.428;6.796;2022-09-30T04:55:32;6.60;99.90
14020;DHT22;7085;51.428;6.796;2022-09-30T04:57:59;6.70;99.90
14020;DHT22;7085;51.428;6.796;2022-09-30T05:00:25;6.60;99.90
14020;DHT22;7085;51.428;6.796;2022-09-30T05:02:52;6.50;99.90
14020;DHT22;7085;51.428;6.796;2022-09-30T05:05:19;6.50;99.90
14020;DHT22;7085;51.428;6.796;2022-09-30T05:07:45;6.50;99.90
14020;DHT22;7085;51.428;6.796;2022-09-30T05:10:12;6.50;99.90
14020;DHT22;7085;51.428;6.796;2022-09-30T05:12:42;6.50;99.90
14020;DHT22;7085;51.428;6.796;2022-09-30T05:15:10;6.50;99.90
14020;DHT22;7085;51.428;6.796;2022-09-30T05:17:37;6.50;99.90
14020;DHT22;7085;51.428;6.796;2022-09-30T05:21:53;6.40;99.90
14020;DHT22;7085;51.428;6.796;2022-09-30T05:24:19;6.40;99.90
14020;DHT22;7085;51.428;6.796;2022-09-30T05:26:46;6.40;99.90
14020;DHT22;7085;51.428;6.796;2022-09-30T05:29:13;6.50;99.90
14020;DHT22;7085;51.428;6.796;2022-09-30T05:31:39;6.50;99.90
14020;DHT22;7085;51.428;6.796;2022-09-30T05:34:07;6.50;99.90
14020;DHT22;7085;51.428;6.796;2022-09-30T05:36:34;6.50;99.90
14020;DHT22;7085;51.428;6.796;2022-09-30T05:39:02;6.40;99.90
14020;DHT22;7085;51.428;6.796;2022-09-30T05:41:29;6.40;99.90
14020;DHT22;7085;51.428;6.796;2022-09-30T05:43:56;6.40;99.90
14020;DHT22;7085;51.428;6.796;2022-09-30T05:46:25;6.40;99.90
14020;DHT22;7085;51.428;6.796;2022-09-30T05:48:53;6.40;99.90
14020;DHT22;7085;51.428;6.796;2022-09-30T05:51:19;6.40;99.90
14020;DHT22;7085;51.428;6.796;2022-09-30T05:53:46;6.40;99.90
14020;DHT22;7085;51.428;6.796;2022-09-30T05:56:14;6.30;99.90
14020;DHT22;7085;51.428;6.796;2022-09-30T05:58:41;6.20;99.90
14020;DHT22;7085;51.428;6.796;2022-09-30T06:01:10;6.20;99.90
14020;DHT22;7085;51.428;6.796;2022-09-30T06:03:37;6.20;99.90
14020;DHT22;7085;51.428;6.796;2022-09-30T06:06:05;6.20;99.90
14020;DHT22;7085;51.428;6.796;2022-09-30T06:08:32;6.20;99.90
14020;DHT22;7085;51.428;6.796;2022-09-30T06:10:59;6.20;99.90
14020;DHT22;7085;51.428;6.796;2022-09-30T06:13:27;6.20;99.90
14020;DHT22;7085;51.428;6.796;2022-09-30T06:15:55;6.30;99.90
14020;DHT22;7085;51.428;6.796;2022-09-30T06:18:22;6.40;99.90
14020;DHT22;7085;51.428;6.796;2022-09-30T06:20:50;6.40;99.90
14020;DHT22;7085;51.428;6.796;2022-09-30T06:23:16;6.40;99.90
14020;DHT22;7085;51.428;6.796;2022-09-30T06:25:44;6.40;99.90
14020;DHT22;7085;51.428;6.796;2022-09-30T06:28:11;6.40;99.90
14020;DHT22;7085;51.428;6.796;2022-09-30T06:30:39;6.60;99.90
14020;DHT22;7085;51.428;6.796;2022-09-30T06:33:06;6.50;99.90
14020;DHT22;7085;51.428;6.796;2022-09-30T06:35:32;6.60;99.90
14020;DHT22;7085;51.428;6.796;2022-09-30T06:37:59;6.60;99.90
14020;DHT22;7085;51.428;6.796;2022-09-30T06:40:26;6.70;99.90
14020;DHT22;7085;51.428;6.796;2022-09-30T06:42:57;6.70;99.90
14020;DHT22;7085;51.428;6.796;2022-09-30T06:45:24;6.80;99.90
14020;DHT22;7085;51.428;6.796;2022-09-30T06:47:56;6.90;99.90
14020;DHT22;7085;51.428;6.796;2022-09-30T06:50:23;7.00;99.90
14020;DHT22;7085;51.428;6.796;2022-09-30T06:52:50;7.10;99.90
14020;DHT22;7085;51.428;6.796;2022-09-30T06:55:17;7.20;99.90
14020;DHT22;7085;51.428;6.796;2022-09-30T06:57:44;7.20;99.90
14020;DHT22;7085;51.428;6.796;2022-09-30T07:00:13;7.30;99.90
14020;DHT22;7085;51.428;6.796;2022-09-30T07:02:41;7.40;99.90
14020;DHT22;7085;51.428;6.796;2022-09-30T07:05:09;7.40;99.90
14020;DHT22;7085;51.428;6.796;2022-09-30T07:07:37;7.50;99.90
14020;DHT22;7085;51.428;6.796;2022-09-30T07:10:04;7.60;99.90
14020;DHT22;7085;51.428;6.796;2022-09-30T07:12:31;7.60;99.90
14020;DHT22;7085;51.428;6.796;2022-09-30T07:14:59;7.60;99.90
14020;DHT22;7085;51.428;6.796;2022-09-30T07:17:26;7.60;99.90
14020;DHT22;7085;51.428;6.796;2022-09-30T07:19:53;7.70;99.90
14020;DHT22;7085;51.428;6.796;2022-09-30T07:22:21;7.70;99.90
14020;DHT22;7085;51.428;6.796;2022-09-30T07:24:54;7.80;99.90
14020;DHT22;7085;51.428;6.796;2022-09-30T07:27:21;7.90;99.90
14020;DHT22;7085;51.428;6.796;2022-09-30T07:29:48;7.90;99.90
14020;DHT22;7085;51.428;6.796;2022-09-30T07:32:15;8.00;99.90
14020;DHT22;7085;51.428;6.796;2022-09-30T07:34:43;8.10;99.90
14020;DHT22;7085;51.428;6.796;2022-09-30T07:37:10;8.20;99.90
14020;DHT22;7085;51.428;6.796;2022-09-30T07:39:40;8.30;99.90
14020;DHT22;7085;51.428;6.796;2022-09-30T07:42:07;8.40;99.90
14020;DHT22;7085;51.428;6.796;2022-09-30T07:44:33;8.50;99.90
14020;DHT22;7085;51.428;6.796;2022-09-30T07:47:01;8.60;99.90
14020;DHT22;7085;51.428;6.796;2022-09-30T07:49:28;8.70;99.90
14020;DHT22;7085;51.428;6.796;2022-09-30T07:51:56;8.80;99.90
14020;DHT22;7085;51.428;6.796;2022-09-30T07:54:25;8.80;99.90
14020;DHT22;7085;51.428;6.796;2022-09-30T07:56:54;8.90;99.90
14020;DHT22;7085;51.428;6.796;2022-09-30T07:59:21;9.00;99.90
14020;DHT22;7085;51.428;6.796;2022-09-30T08:01:49;9.20;99.90
14020;DHT22;7085;51.428;6.796;2022-09-30T08:04:18;9.30;99.90
14020;DHT22;7085;51.428;6.796;2022-09-30T08:06:47;9.50;99.90
14020;DHT22;7085;51.428;6.796;2022-09-30T08:09:15;9.80;99.90
14020;DHT22;7085;51.428;6.796;2022-09-30T08:11:43;10.50;99.90
